Watertown Regional Airport
KATY : rendu visible

Aérodrome :











RETROUVEZ-NOUS SUR...

 
LOGIN :

S'inscrire | Disclaimer

   EN    FR    IT 

 









Légende :    VFR   VFR Marginal   IFR   IFR Intensif   IFR Très Intensif
Visi : 
Plafond : 
>= 8 km
>= 3000ft
5 à 8 km
1000 à 3000 ft
1500m à 5 km
500 à 1000 ft
800 à 1500m
200 à 500 ft
< 800m
< 200 ft
Symboles :   Orages  Brouillard  Fortes neiges  Fortes précipitations  Vent > 20 kt






- Altitude de l'aérodrome : 1749 ft
- Code IATA : ATY


KATY - Watertown Regional

DERNIER METAR :
  • 281253Z AUTO 32006KT 10SM CLR 18/13 A3006 RMK AO2 SLP173 T01780128

METARs EXPIRÉS :
  • 281153Z AUTO 31004KT 10SM CLR 16/13 A3006 RMK AO2 SLP172 60000 T01560128 10183 20144 53009
  • 281053Z AUTO 30004KT 10SM FEW120 15/13 A3004 RMK AO2 SLP166 T01500128

TAF KATY
Valide du 28 à 12h jusqu'au 29 à 12h UTC


281120Z 2812/2912 VRB04KT P6SM FEW150
FM281400 33011G18KT P6SM SKC
FM281700 32016G25KT P6SM SKC
FM290200 34008KT P6SM SKC
FIR KZMP / Amérique du Nord



MET'MAP, la Météo Aéronautique d'un coup d'oeil ! - Copyright ORBIFLY Décembre 2007 - Disclaimer

ORBIFLY MET'MAP TEAM :

Programmation & Développement : Alexandra Zaïnal
Sur une idée originale de : Baudouin d'Aumeries
Assistance à la programmation : Marc-Olivier Méhu
Soutien technique & logistique : Manuel Goepfert

Contact : metmap@orbifly.com




SOURCES & CREDITS :

   NOAA       Earth
Advisory